アンマン の空港の天気 - METARとTAF

クィーンアリア国際空港 ( OJAI / AMM ) - ヨルダン アンマン
飛行場実況気象(Metar)
観測時間10/24 11:00 EEST (10/24 08:00 UTC)
風向・風速東 8m/s
視程3000m
天気現象高い風塵
なし
気温28℃
湿度15%
気圧1018hPa
METAROJAI 240800Z 10016KT 3000 BLDU NSC 28/M01 Q1018 NOSIG
過去の天気等 Google飛行場航空写真 Wunderground天気予報

過去48時間のMETAR

飛行場予報(TAF)
発表時間: 10/24 07:50 EEST (10/24 04:50 UTC)
予報対象時間: 24日9時 EEST ~ 25日15時 EEST
風向・風速東 4m/s
視程5000m
天気現象煙霧
なし
24日13時 EEST から 確率 30% で
風向・風速南東 8m/s
視程3500m
天気現象高い風塵
24日21時 EEST ~ 24日23時 EEST に徐々に
少しの雲 雲底高度 1520m
24日21時 EEST から 確率 30% で
視程4000m
天気現象弱い雨
全天の4割程度の雲 雲底高度 1520m
全天の8割程度の雲 雲底高度 3050m
TAF OJAI 240450Z 2406/2512 09008KT 5000 HZ NSC
PROB30 2410/2416 13016KT 3500 BLDU
BECMG 2418/2420 FEW050
PROB30 2418/2509 4000 -RA SCT050 BKN100